PDK weather

DeKalb Peachtree Airport
Atlanta, Georgia, United States

Public forecast

Using degrees Fahrenheit for public forecast. Weather courtesy of forecast.io.

METAR (pilot weather report)

Retrieved 2019/04/21 04:53 UTC (52 minutes ago):

KPDK 210453Z AUTO 22004KT 10SM FEW070 SCT080 07/06 A2996 RMK AO2 SLP151 T00720061 400940056 $

TAF (pilot weather forecast)

Forecast is more than 12 hours old.

Retrieved 2019/04/20 00:22 UTC (1 day ago):

TAF KPDK 202320Z 2100/2124 26006KT P6SM SCT025 BKN040 FM210300 29005KT P6SM SCT060 FM211200 30007KT P6SM SKC FM211500 32010G16KT P6SM SKC